Time;durP1;ratioP1;P1;durP2;ratioP2;P2;SDS_P1;SDS_P2;PMS_P1;PMS_P2;Temp;Humidity;BMP_temperature;BMP_pressure;BME280_temperature;BME280_humidity;BME280_pressure;Samples;Min_cycle;Max_cycle;Signal;HPM_P1;HPM_P2
2022/03/05 00:00:09;;;;;;;6.95;1.60;;;;;;;;;;5075195;28;20039;-67
2022/03/05 00:02:39;;;;;;;4.10;1.35;;;;;;;;;;5074298;28;20047;-67
2022/03/05 00:05:07;;;;;;;5.60;1.30;;;;;;;;;;5075382;28;20024;-67
2022/03/05 00:07:34;;;;;;;7.80;1.30;;;;;;;;;;5078311;28;20044;-67
2022/03/05 00:10:03;;;;;;;7.50;1.75;;;;;;;;;;5078840;28;20039;-67
2022/03/05 00:12:30;;;;;;;3.67;1.17;;;;;;;;;;5077738;28;20097;-67
2022/03/05 00:14:58;;;;;;;5.07;1.00;;;;;;;;;;5078859;28;20039;-67
2022/03/05 00:17:25;;;;;;;5.50;1.08;;;;;;;;;;5078780;28;20028;-67
2022/03/05 00:19:54;;;;;;;7.07;1.05;;;;;;;;;;5078625;28;20062;-67
2022/03/05 00:22:21;;;;;;;6.40;1.02;;;;;;;;;;5078552;28;20027;-67
2022/03/05 00:24:49;;;;;;;8.32;1.10;;;;;;;;;;5077520;28;20024;-67
2022/03/05 00:27:17;;;;;;;8.48;1.48;;;;;;;;;;5077506;28;20107;-67
2022/03/05 00:29:44;;;;;;;12.35;1.42;;;;;;;;;;5078531;28;20024;-66
2022/03/05 00:32:12;;;;;;;7.45;1.08;;;;;;;;;;5078522;28;20401;-67
2022/03/05 00:34:40;;;;;;;5.18;1.10;;;;;;;;;;5078358;28;20032;-67
2022/03/05 00:37:08;;;;;;;8.30;1.10;;;;;;;;;;5078400;28;20025;-67
2022/03/05 00:39:36;;;;;;;4.68;0.90;;;;;;;;;;5077182;28;20109;-67
2022/03/05 00:42:04;;;;;;;8.65;1.20;;;;;;;;;;5078270;28;20052;-67
2022/03/05 00:44:32;;;;;;;10.43;1.30;;;;;;;;;;5078255;28;20020;-67
2022/03/05 00:47:00;;;;;;;4.30;1.08;;;;;;;;;;5077130;28;20032;-67
2022/03/05 00:49:27;;;;;;;9.13;2.00;;;;;;;;;;5078198;28;20028;-66
2022/03/05 00:51:55;;;;;;;7.85;1.45;;;;;;;;;;5078124;28;20024;-67
2022/03/05 00:54:23;;;;;;;5.93;1.45;;;;;;;;;;5076967;28;20028;-67
2022/03/05 00:56:50;;;;;;;18.10;3.83;;;;;;;;;;5077981;28;20032;-67
2022/03/05 00:59:16;;;;;;;11.07;2.67;;;;;;;;;;5077708;28;20055;-67
2022/03/05 01:01:43;;;;;;;15.75;3.90;;;;;;;;;;5077857;28;20020;-66
2022/03/05 01:04:11;;;;;;;10.52;3.40;;;;;;;;;;5077693;28;20028;-67
2022/03/05 01:06:38;;;;;;;10.35;2.47;;;;;;;;;;5077719;28;20044;-67
2022/03/05 01:09:06;;;;;;;14.98;5.60;;;;;;;;;;5077647;28;20115;-67
2022/03/05 01:11:37;;;;;;;13.52;4.80;;;;;;;;;;5077291;28;20100;-67
2022/03/05 01:14:04;;;;;;;6.45;2.80;;;;;;;;;;5077644;28;20073;-67
2022/03/05 01:16:35;;;;;;;12.93;2.60;;;;;;;;;;5077521;28;20056;-67
2022/03/05 01:19:02;;;;;;;8.88;2.58;;;;;;;;;;5077351;28;20325;-67
2022/03/05 01:21:30;;;;;;;19.08;8.05;;;;;;;;;;5077202;28;20025;-67
2022/03/05 01:23:57;;;;;;;15.02;6.00;;;;;;;;;;5077245;28;20036;-67
2022/03/05 01:26:28;;;;;;;10.65;2.53;;;;;;;;;;5076011;28;20413;-67
2022/03/05 01:28:56;;;;;;;5.75;1.33;;;;;;;;;;5077213;28;20028;-66
2022/03/05 01:31:24;;;;;;;9.55;1.55;;;;;;;;;;5077091;28;20070;-67
2022/03/05 01:33:51;;;;;;;13.07;3.75;;;;;;;;;;5077025;28;20020;-66
2022/03/05 01:36:19;;;;;;;15.27;2.35;;;;;;;;;;5077158;28;20021;-66
2022/03/05 01:38:46;;;;;;;5.95;1.50;;;;;;;;;;5075822;28;20328;-67
2022/03/05 01:41:17;;;;;;;7.63;1.75;;;;;;;;;;5075886;28;20016;-67
2022/03/05 01:43:49;;;;;;;11.65;1.83;;;;;;;;;;5076876;28;20023;-66
2022/03/05 01:46:27;;;;;;;11.60;2.20;;;;;;;;;;5076965;28;20467;-65
2022/03/05 01:48:55;;;;;;;11.68;1.60;;;;;;;;;;5075868;28;20031;-65
2022/03/05 01:51:22;;;;;;;11.38;1.42;;;;;;;;;;5076739;28;20024;-66
2022/03/05 01:53:50;;;;;;;7.53;1.80;;;;;;;;;;5076795;28;20035;-66
2022/03/05 01:56:18;;;;;;;7.07;1.45;;;;;;;;;;5076895;28;20035;-66
2022/03/05 01:58:44;;;;;;;6.53;1.48;;;;;;;;;;5076522;28;20040;-66
2022/03/05 02:01:11;;;;;;;10.70;2.17;;;;;;;;;;5076725;28;20024;-65
2022/03/05 02:03:38;;;;;;;13.98;3.08;;;;;;;;;;5076723;28;20043;-66
2022/03/05 02:06:05;;;;;;;13.68;3.03;;;;;;;;;;5077293;28;20102;-66
2022/03/05 02:08:33;;;;;;;16.83;2.88;;;;;;;;;;5076605;28;20028;-66
2022/03/05 02:11:01;;;;;;;21.48;4.47;;;;;;;;;;5076480;28;20093;-66
2022/03/05 02:13:29;;;;;;;14.88;4.53;;;;;;;;;;5076548;28;20051;-66
2022/03/05 02:15:57;;;;;;;9.20;2.97;;;;;;;;;;5076614;28;20352;-67
2022/03/05 02:18:25;;;;;;;10.82;3.22;;;;;;;;;;5076322;28;20024;-66
2022/03/05 02:20:52;;;;;;;11.52;2.63;;;;;;;;;;5077445;28;20051;-66
2022/03/05 02:23:20;;;;;;;19.58;3.35;;;;;;;;;;5094780;28;20032;-66
2022/03/05 02:25:57;;;;;;;11.32;3.35;;;;;;;;;;5094829;28;20105;-67
2022/03/05 02:28:25;;;;;;;16.15;3.22;;;;;;;;;;5077309;28;20085;-66
2022/03/05 02:30:53;;;;;;;16.95;3.47;;;;;;;;;;5094481;28;20020;-67
2022/03/05 02:33:20;;;;;;;15.07;3.13;;;;;;;;;;5094550;28;20024;-66
2022/03/05 02:35:48;;;;;;;11.43;2.30;;;;;;;;;;5094612;28;20028;-67
2022/03/05 02:38:17;;;;;;;10.45;2.97;;;;;;;;;;5094124;28;20028;-66
2022/03/05 02:40:45;;;;;;;15.88;3.63;;;;;;;;;;5094315;28;20085;-67
2022/03/05 02:43:13;;;;;;;16.17;5.38;;;;;;;;;;5077482;28;20431;-67
2022/03/05 02:45:41;;;;;;;24.17;7.80;;;;;;;;;;5094387;28;20036;-66
2022/03/05 02:48:10;;;;;;;26.27;9.35;;;;;;;;;;5077453;28;20395;-67
2022/03/05 02:50:38;;;;;;;29.98;10.20;;;;;;;;;;5094241;28;20135;-65
2022/03/05 02:53:05;;;;;;;28.58;10.50;;;;;;;;;;5094118;28;20449;-67
2022/03/05 02:55:34;;;;;;;26.70;7.22;;;;;;;;;;5094085;28;20032;-67
2022/03/05 02:58:00;;;;;;;14.10;5.28;;;;;;;;;;5076583;28;20040;-68
2022/03/05 03:00:27;;;;;;;33.40;8.48;;;;;;;;;;5093998;28;20067;-67
2022/03/05 03:02:55;;;;;;;30.73;9.70;;;;;;;;;;5077240;28;20024;-68
2022/03/05 03:05:23;;;;;;;34.65;11.20;;;;;;;;;;5094169;28;20054;-68
2022/03/05 03:07:51;;;;;;;28.13;9.10;;;;;;;;;;5094014;28;20102;-67
2022/03/05 03:10:19;;;;;;;23.98;7.78;;;;;;;;;;5091155;28;20044;-67
2022/03/05 03:12:46;;;;;;;26.42;8.95;;;;;;;;;;5074431;28;20443;-69
2022/03/05 03:15:14;;;;;;;34.13;11.00;;;;;;;;;;5075709;28;20043;-68
2022/03/05 03:17:45;;;;;;;43.40;14.38;;;;;;;;;;5074626;28;20059;-67
2022/03/05 03:20:13;;;;;;;50.17;16.35;;;;;;;;;;5074413;28;20032;-68
2022/03/05 03:22:40;;;;;;;46.33;13.77;;;;;;;;;;5075489;28;20028;-67
2022/03/05 03:25:10;;;;;;;34.22;11.75;;;;;;;;;;5075630;28;20317;-68
2022/03/05 03:27:38;;;;;;;30.10;9.00;;;;;;;;;;5074517;28;20337;-67
2022/03/05 03:30:06;;;;;;;29.23;9.60;;;;;;;;;;5075732;28;20020;-68
2022/03/05 03:32:34;;;;;;;17.15;5.22;;;;;;;;;;5074461;28;20021;-67
2022/03/05 03:35:01;;;;;;;22.67;5.75;;;;;;;;;;5075455;28;20111;-67
2022/03/05 03:37:31;;;;;;;22.80;6.55;;;;;;;;;;5074449;28;20118;-67
2022/03/05 03:39:59;;;;;;;26.52;3.83;;;;;;;;;;5075477;28;20027;-67
2022/03/05 03:42:27;;;;;;;14.70;4.90;;;;;;;;;;5078551;28;20428;-68
2022/03/05 03:44:55;;;;;;;12.68;2.60;;;;;;;;;;5079273;28;20024;-68
2022/03/05 03:47:23;;;;;;;25.33;2.67;;;;;;;;;;5079169;28;20029;-68
2022/03/05 03:49:51;;;;;;;10.85;2.30;;;;;;;;;;5078958;28;20104;-68
2022/03/05 03:52:18;;;;;;;19.25;5.45;;;;;;;;;;5078017;28;20024;-67
2022/03/05 03:54:47;;;;;;;5.75;1.77;;;;;;;;;;5079064;28;20078;-68
2022/03/05 03:57:15;;;;;;;9.77;1.77;;;;;;;;;;5078955;28;20024;-67
2022/03/05 03:59:41;;;;;;;24.48;7.20;;;;;;;;;;5078661;28;20070;-67
2022/03/05 04:02:08;;;;;;;16.42;3.60;;;;;;;;;;5078965;28;20059;-68
2022/03/05 04:04:38;;;;;;;12.40;3.92;;;;;;;;;;5077783;28;20021;-67
2022/03/05 04:09:52;;;;;;;14.77;3.97;;;;;;;;;;5078819;28;20082;-67
2022/03/05 04:12:19;;;;;;;8.95;2.13;;;;;;;;;;5078697;28;20332;-67
2022/03/05 04:14:47;;;;;;;13.52;2.50;;;;;;;;;;5078674;28;20413;-66
2022/03/05 04:17:15;;;;;;;12.02;2.88;;;;;;;;;;5078578;28;20417;-67
2022/03/05 04:19:43;;;;;;;13.60;2.97;;;;;;;;;;5077405;28;20020;-67
2022/03/05 04:22:14;;;;;;;17.05;3.08;;;;;;;;;;5077467;28;20024;-66
2022/03/05 04:24:46;;;;;;;12.65;3.28;;;;;;;;;;5078710;28;20428;-67
2022/03/05 04:27:14;;;;;;;16.45;4.97;;;;;;;;;;5078334;28;20095;-68
2022/03/05 04:29:42;;;;;;;14.43;3.25;;;;;;;;;;5078431;28;20024;-66
2022/03/05 04:32:09;;;;;;;12.00;5.60;;;;;;;;;;5078338;28;20025;-67
2022/03/05 04:34:36;;;;;;;20.85;4.65;;;;;;;;;;5078365;28;20032;-67
2022/03/05 04:37:05;;;;;;;13.98;3.03;;;;;;;;;;5078006;28;20078;-66
2022/03/05 04:39:32;;;;;;;11.05;3.00;;;;;;;;;;5078312;28;20294;-67
2022/03/05 04:42:00;;;;;;;15.07;3.60;;;;;;;;;;5077808;28;20102;-66
2022/03/05 04:44:28;;;;;;;11.43;4.18;;;;;;;;;;5077992;28;20025;-67
2022/03/05 04:46:55;;;;;;;15.05;3.33;;;;;;;;;;5077988;28;20125;-65
2022/03/05 04:49:31;;;;;;;38.28;6.07;;;;;;;;;;5076774;28;20031;-66
2022/03/05 04:51:58;;;;;;;26.02;10.57;;;;;;;;;;5077594;28;20028;-68
2022/03/05 04:54:29;;;;;;;9.73;3.72;;;;;;;;;;5076775;28;20028;-66
2022/03/05 04:56:57;;;;;;;16.60;5.65;;;;;;;;;;5078003;28;20436;-68
2022/03/05 04:59:27;;;;;;;21.95;7.85;;;;;;;;;;5077551;28;20049;-68
2022/03/05 05:01:58;;;;;;;24.92;12.50;;;;;;;;;;5076713;28;20104;-67
2022/03/05 05:04:25;;;;;;;17.67;4.30;;;;;;;;;;5076677;28;20459;-66
2022/03/05 05:06:53;;;;;;;17.52;7.80;;;;;;;;;;5077644;28;20074;-67
2022/03/05 05:09:20;;;;;;;19.20;7.22;;;;;;;;;;5077668;28;20024;-67
2022/03/05 05:11:48;;;;;;;22.30;5.78;;;;;;;;;;5076627;28;20032;-68
2022/03/05 05:14:16;;;;;;;20.63;5.85;;;;;;;;;;5077563;28;20032;-67
2022/03/05 05:16:43;;;;;;;23.83;5.78;;;;;;;;;;5077518;28;20031;-66
2022/03/05 05:19:29;;;;;;;20.50;4.18;;;;;;;;;;5075939;28;20082;-67
2022/03/05 05:22:00;;;;;;;15.40;4.15;;;;;;;;;;5077248;28;20101;-67
2022/03/05 05:24:30;;;;;;;13.50;4.22;;;;;;;;;;5077002;28;20020;-67
2022/03/05 05:26:58;;;;;;;25.23;6.25;;;;;;;;;;5077315;28;20027;-68
2022/03/05 05:29:26;;;;;;;15.55;5.10;;;;;;;;;;5077301;28;20021;-69
2022/03/05 05:31:55;;;;;;;18.60;4.05;;;;;;;;;;5077183;28;20028;-68
2022/03/05 05:34:23;;;;;;;25.42;6.95;;;;;;;;;;5077314;28;20313;-67
2022/03/05 05:36:51;;;;;;;21.13;4.82;;;;;;;;;;5077284;28;20031;-67
2022/03/05 05:39:18;;;;;;;17.85;5.93;;;;;;;;;;5076070;28;20025;-68
2022/03/05 05:41:46;;;;;;;16.90;5.13;;;;;;;;;;5076801;28;20020;-67
2022/03/05 05:44:13;;;;;;;18.75;3.83;;;;;;;;;;5076841;28;20291;-68
2022/03/05 05:46:41;;;;;;;13.27;3.75;;;;;;;;;;5075428;28;20103;-67
2022/03/05 05:49:08;;;;;;;21.50;4.28;;;;;;;;;;5076783;28;20038;-68
2022/03/05 05:51:36;;;;;;;17.17;5.80;;;;;;;;;;5076763;28;20028;-69
2022/03/05 05:54:04;;;;;;;20.73;7.40;;;;;;;;;;5076478;28;20020;-67
2022/03/05 05:56:31;;;;;;;26.00;10.35;;;;;;;;;;5076591;28;20539;-67
2022/03/05 05:58:58;;;;;;;24.45;8.77;;;;;;;;;;5075306;28;20131;-68
2022/03/05 06:01:24;;;;;;;38.03;12.23;;;;;;;;;;5076649;28;20024;-69
2022/03/05 06:03:52;;;;;;;42.90;14.93;;;;;;;;;;5074706;28;20020;-68
2022/03/05 06:06:21;;;;;;;28.88;6.63;;;;;;;;;;5075322;28;20024;-68
2022/03/05 06:08:49;;;;;;;23.90;4.95;;;;;;;;;;5076393;28;20050;-68
2022/03/05 06:11:16;;;;;;;19.55;4.10;;;;;;;;;;5076373;28;20109;-68
2022/03/05 06:13:44;;;;;;;29.23;7.80;;;;;;;;;;5076292;28;20501;-69
2022/03/05 06:16:12;;;;;;;21.13;6.88;;;;;;;;;;5076119;28;20313;-69
2022/03/05 06:18:39;;;;;;;20.10;8.65;;;;;;;;;;5075754;28;20024;-67
2022/03/05 06:21:08;;;;;;;23.38;7.88;;;;;;;;;;5074921;28;20028;-67
2022/03/05 06:23:37;;;;;;;26.15;7.78;;;;;;;;;;5076151;28;20417;-68
2022/03/05 06:26:04;;;;;;;22.92;4.78;;;;;;;;;;5076156;28;20024;-67
2022/03/05 06:28:33;;;;;;;30.95;9.45;;;;;;;;;;5075944;28;20422;-67
2022/03/05 06:31:00;;;;;;;15.98;4.78;;;;;;;;;;5076184;28;20306;-68
2022/03/05 06:33:28;;;;;;;29.00;6.72;;;;;;;;;;5075864;28;20079;-68
2022/03/05 06:35:56;;;;;;;23.42;7.70;;;;;;;;;;5075807;28;20047;-67
2022/03/05 06:38:23;;;;;;;22.67;7.57;;;;;;;;;;5075806;28;20025;-67
2022/03/05 06:40:50;;;;;;;21.45;6.75;;;;;;;;;;5075971;28;20028;-67
2022/03/05 06:43:19;;;;;;;29.00;7.68;;;;;;;;;;5074740;28;20086;-67
2022/03/05 06:45:52;;;;;;;24.23;6.00;;;;;;;;;;5075563;28;20044;-67
2022/03/05 06:48:20;;;;;;;22.20;7.38;;;;;;;;;;5075806;28;20020;-68
2022/03/05 06:50:47;;;;;;;29.00;6.90;;;;;;;;;;5076585;28;20025;-68
2022/03/05 06:53:15;;;;;;;18.42;5.93;;;;;;;;;;5075727;28;20028;-67
2022/03/05 06:55:43;;;;;;;21.63;6.13;;;;;;;;;;5075987;28;20056;-67
2022/03/05 06:58:09;;;;;;;17.80;6.38;;;;;;;;;;5074435;28;20051;-69
2022/03/05 07:00:35;;;;;;;21.20;6.65;;;;;;;;;;5075655;28;20033;-70
2022/03/05 07:03:03;;;;;;;37.35;6.13;;;;;;;;;;5075682;28;20027;-68
2022/03/05 07:05:30;;;;;;;17.85;5.07;;;;;;;;;;5075559;28;20103;-67
2022/03/05 07:07:58;;;;;;;18.95;7.75;;;;;;;;;;5075707;28;20436;-68
2022/03/05 07:10:27;;;;;;;24.13;7.10;;;;;;;;;;5076363;28;20036;-67
2022/03/05 07:12:55;;;;;;;43.63;8.75;;;;;;;;;;5075420;28;20032;-66
2022/03/05 07:15:22;;;;;;;42.03;8.10;;;;;;;;;;5077118;28;20025;-68
2022/03/05 07:17:51;;;;;;;27.80;7.10;;;;;;;;;;5080165;28;20035;-68
2022/03/05 07:20:19;;;;;;;22.60;7.25;;;;;;;;;;5079478;28;20024;-68
2022/03/05 07:22:46;;;;;;;23.42;10.15;;;;;;;;;;5080325;28;20032;-67
2022/03/05 07:25:14;;;;;;;32.97;14.25;;;;;;;;;;5085355;28;20024;-66
2022/03/05 07:27:44;;;;;;;38.97;15.98;;;;;;;;;;5085062;28;20017;-66
2022/03/05 07:30:11;;;;;;;36.55;14.85;;;;;;;;;;5080437;28;20024;-66
2022/03/05 07:32:39;;;;;;;26.52;11.77;;;;;;;;;;5078186;28;20385;-65
2022/03/05 07:35:07;;;;;;;35.75;10.32;;;;;;;;;;5078011;28;20024;-66
2022/03/05 07:37:35;;;;;;;24.83;7.68;;;;;;;;;;5078659;28;20020;-65
2022/03/05 07:40:04;;;;;;;31.00;8.25;;;;;;;;;;5079081;28;20398;-67
2022/03/05 07:42:37;;;;;;;30.27;13.88;;;;;;;;;;5077933;28;20413;-65
2022/03/05 07:45:08;;;;;;;27.02;11.73;;;;;;;;;;5079006;28;20097;-66
2022/03/05 07:47:36;;;;;;;34.22;14.18;;;;;;;;;;5078981;28;20027;-66
2022/03/05 07:50:04;;;;;;;29.80;12.88;;;;;;;;;;5078870;28;20104;-66
2022/03/05 07:52:31;;;;;;;68.07;31.00;;;;;;;;;;5077812;28;20075;-66
2022/03/05 07:54:59;;;;;;;46.03;13.80;;;;;;;;;;5078733;28;20021;-67
2022/03/05 07:57:30;;;;;;;25.05;10.20;;;;;;;;;;5078796;28;20074;-67
2022/03/05 07:59:57;;;;;;;21.05;7.20;;;;;;;;;;5078309;28;20171;-67
2022/03/05 08:02:25;;;;;;;37.63;11.38;;;;;;;;;;5078316;28;20317;-68
2022/03/05 08:04:53;;;;;;;22.05;8.18;;;;;;;;;;5078273;28;20047;-67
2022/03/05 08:07:21;;;;;;;52.17;19.75;;;;;;;;;;5078266;28;20029;-67
2022/03/05 08:09:49;;;;;;;40.78;17.67;;;;;;;;;;5078270;28;20044;-66
2022/03/05 08:12:17;;;;;;;28.45;12.85;;;;;;;;;;5077053;28;20024;-67
2022/03/05 08:14:45;;;;;;;46.10;22.40;;;;;;;;;;5078245;28;20480;-67
2022/03/05 08:17:13;;;;;;;100.25;49.60;;;;;;;;;;5078411;28;20104;-67
2022/03/05 08:19:41;;;;;;;54.28;28.92;;;;;;;;;;5078152;28;20061;-67
2022/03/05 08:22:08;;;;;;;40.47;19.42;;;;;;;;;;5078190;28;20025;-67
2022/03/05 08:24:36;;;;;;;31.23;11.98;;;;;;;;;;5076698;28;20027;-67
2022/03/05 08:27:03;;;;;;;56.17;28.42;;;;;;;;;;5076999;28;20096;-67
2022/03/05 08:29:31;;;;;;;40.13;17.95;;;;;;;;;;5077780;28;20021;-67
2022/03/05 08:31:58;;;;;;;41.83;19.02;;;;;;;;;;5078139;28;20331;-69
2022/03/05 08:34:26;;;;;;;35.88;16.73;;;;;;;;;;5076901;28;20032;-68
2022/03/05 08:36:54;;;;;;;32.83;14.88;;;;;;;;;;5077916;28;20083;-67
2022/03/05 08:39:21;;;;;;;39.30;19.23;;;;;;;;;;5076368;28;20039;-67
2022/03/05 08:41:49;;;;;;;39.17;17.00;;;;;;;;;;5077858;28;20028;-68
2022/03/05 08:44:16;;;;;;;40.67;17.15;;;;;;;;;;5075943;28;20491;-67
2022/03/05 08:46:44;;;;;;;68.75;31.05;;;;;;;;;;5076316;28;20421;-67
2022/03/05 08:49:11;;;;;;;46.22;23.23;;;;;;;;;;5076091;28;20054;-68
2022/03/05 08:51:39;;;;;;;51.58;24.75;;;;;;;;;;5077341;28;20025;-67
2022/03/05 08:54:07;;;;;;;31.60;16.13;;;;;;;;;;5077296;28;20029;-69
2022/03/05 08:56:34;;;;;;;50.65;19.88;;;;;;;;;;5076996;28;20049;-67
2022/03/05 08:59:01;;;;;;;26.70;10.30;;;;;;;;;;5077126;28;20048;-68
2022/03/05 09:01:27;;;;;;;26.08;12.10;;;;;;;;;;5077168;28;20025;-67
2022/03/05 09:03:54;;;;;;;30.23;10.55;;;;;;;;;;5077028;28;20482;-67
2022/03/05 09:06:22;;;;;;;29.50;9.40;;;;;;;;;;5077287;28;20417;-67
2022/03/05 09:08:50;;;;;;;21.25;6.78;;;;;;;;;;5076017;28;20028;-68
2022/03/05 09:11:18;;;;;;;17.65;6.90;;;;;;;;;;5076899;28;20036;-67
2022/03/05 09:13:45;;;;;;;24.80;9.15;;;;;;;;;;5077134;28;20021;-67
2022/03/05 09:16:13;;;;;;;26.33;9.98;;;;;;;;;;5076734;28;20024;-67
2022/03/05 09:18:41;;;;;;;22.60;10.15;;;;;;;;;;5076937;28;20049;-67
2022/03/05 09:21:09;;;;;;;31.38;13.40;;;;;;;;;;5077111;28;20024;-67
2022/03/05 09:23:36;;;;;;;29.13;15.52;;;;;;;;;;5075829;28;20027;-67
2022/03/05 09:26:04;;;;;;;35.78;13.85;;;;;;;;;;5076716;28;20012;-68
2022/03/05 09:28:31;;;;;;;21.00;10.88;;;;;;;;;;5076490;28;20024;-68
2022/03/05 09:30:59;;;;;;;24.55;9.35;;;;;;;;;;5076530;28;20032;-65
2022/03/05 09:33:27;;;;;;;19.52;7.38;;;;;;;;;;5076815;28;20091;-66
2022/03/05 09:35:54;;;;;;;18.90;8.20;;;;;;;;;;5076766;28;20366;-68
2022/03/05 09:38:22;;;;;;;23.70;8.45;;;;;;;;;;5075951;28;20024;-67
2022/03/05 09:40:49;;;;;;;21.83;6.93;;;;;;;;;;5076530;28;20051;-69
2022/03/05 09:43:18;;;;;;;30.40;6.30;;;;;;;;;;5075281;28;20029;-67
2022/03/05 09:45:46;;;;;;;16.88;4.30;;;;;;;;;;5076080;28;20024;-67
2022/03/05 09:48:17;;;;;;;13.63;4.53;;;;;;;;;;5076581;28;20021;-66
2022/03/05 09:50:45;;;;;;;16.50;5.40;;;;;;;;;;5076221;28;20028;-67
2022/03/05 09:53:13;;;;;;;22.10;6.30;;;;;;;;;;5076256;28;20096;-67
2022/03/05 09:55:40;;;;;;;18.25;5.47;;;;;;;;;;5075003;28;20059;-67
2022/03/05 09:58:07;;;;;;;21.38;5.22;;;;;;;;;;5076176;28;20040;-67
2022/03/05 10:00:33;;;;;;;21.52;4.80;;;;;;;;;;5076136;28;20036;-66
2022/03/05 10:03:05;;;;;;;16.48;4.03;;;;;;;;;;5076097;28;20044;-68
2022/03/05 10:05:34;;;;;;;25.35;4.65;;;;;;;;;;5076045;28;20020;-68
2022/03/05 10:08:15;;;;;;;17.02;4.30;;;;;;;;;;5075813;28;20100;-68
2022/03/05 10:10:59;;;;;;;35.45;5.65;;;;;;;;;;5075798;28;20136;-67
2022/03/05 10:13:33;;;;;;;27.35;6.03;;;;;;;;;;5074115;28;20388;-67
2022/03/05 10:16:05;;;;;;;32.08;7.25;;;;;;;;;;5074552;28;20090;-67
2022/03/05 10:18:35;;;;;;;25.88;5.55;;;;;;;;;;5075553;28;20020;-69
2022/03/05 10:21:05;;;;;;;69.00;21.70;;;;;;;;;;5075259;28;20378;-67
2022/03/05 10:23:34;;;;;;;112.50;39.13;;;;;;;;;;5075736;28;20023;-68
2022/03/05 10:26:03;;;;;;;108.43;49.55;;;;;;;;;;5075251;28;20025;-67
2022/03/05 10:28:31;;;;;;;120.40;54.25;;;;;;;;;;5075134;28;20103;-67
2022/03/05 10:31:12;;;;;;;182.38;51.33;;;;;;;;;;5074243;28;20111;-67
2022/03/05 10:33:41;;;;;;;102.90;43.17;;;;;;;;;;5075361;28;20059;-66
2022/03/05 10:36:24;;;;;;;87.63;34.65;;;;;;;;;;5074835;28;20024;-66
2022/03/05 10:38:59;;;;;;;54.75;23.80;;;;;;;;;;5075148;28;20032;-67
2022/03/05 10:41:39;;;;;;;60.15;21.75;;;;;;;;;;5075142;28;20020;-69
2022/03/05 10:44:17;;;;;;;57.85;19.23;;;;;;;;;;5076811;28;20017;-67
2022/03/05 10:46:57;;;;;;;55.90;19.80;;;;;;;;;;5076468;28;20017;-66
2022/03/05 10:49:28;;;;;;;86.20;21.10;;;;;;;;;;5075063;28;20344;-67
2022/03/05 10:52:06;;;;;;;61.70;22.15;;;;;;;;;;5074880;28;20021;-66
2022/03/05 10:54:40;;;;;;;68.97;22.42;;;;;;;;;;5075378;28;20020;-67
2022/03/05 10:57:09;;;;;;;75.35;23.63;;;;;;;;;;5075273;28;20099;-67
2022/03/05 10:59:38;;;;;;;67.78;23.00;;;;;;;;;;5075182;28;20048;-67
2022/03/05 11:02:10;;;;;;;61.35;23.02;;;;;;;;;;5075504;28;20041;-71
2022/03/05 11:04:39;;;;;;;63.67;23.40;;;;;;;;;;5075264;28;20020;-70
2022/03/05 11:07:08;;;;;;;61.95;24.35;;;;;;;;;;5075480;28;20092;-66
2022/03/05 11:09:36;;;;;;;69.03;25.33;;;;;;;;;;5075488;28;20031;-68
2022/03/05 11:12:04;;;;;;;63.22;25.38;;;;;;;;;;5075277;28;20439;-67
2022/03/05 11:14:32;;;;;;;57.92;23.75;;;;;;;;;;5075269;28;20358;-67
2022/03/05 11:17:00;;;;;;;74.28;25.88;;;;;;;;;;5075148;28;20028;-67
2022/03/05 11:19:28;;;;;;;65.70;20.42;;;;;;;;;;5074992;28;20052;-66
2022/03/05 11:21:56;;;;;;;70.32;19.20;;;;;;;;;;5074981;28;20017;-66
2022/03/05 11:24:24;;;;;;;51.45;13.50;;;;;;;;;;5074883;28;20042;-66
2022/03/05 11:26:52;;;;;;;43.72;13.27;;;;;;;;;;5074786;28;20037;-66
2022/03/05 11:29:20;;;;;;;35.42;11.25;;;;;;;;;;5075267;28;20039;-66
2022/03/05 11:31:48;;;;;;;47.88;13.05;;;;;;;;;;5075200;28;20435;-66
2022/03/05 11:34:18;;;;;;;60.97;14.43;;;;;;;;;;5074978;28;20032;-66
2022/03/05 11:36:47;;;;;;;54.55;13.38;;;;;;;;;;5075236;28;20048;-66
2022/03/05 11:39:33;;;;;;;43.47;12.85;;;;;;;;;;5074816;28;20021;-67
2022/03/05 11:42:08;;;;;;;39.15;13.00;;;;;;;;;;5075039;28;20050;-66
2022/03/05 11:44:43;;;;;;;52.97;14.65;;;;;;;;;;5074002;28;20028;-66
2022/03/05 11:47:28;;;;;;;50.25;14.25;;;;;;;;;;5075183;28;20353;-66
2022/03/05 11:50:00;;;;;;;49.38;12.45;;;;;;;;;;5073901;28;20025;-66
2022/03/05 11:52:41;;;;;;;54.13;13.25;;;;;;;;;;5075156;28;20039;-66
2022/03/05 11:55:17;;;;;;;40.47;10.95;;;;;;;;;;5075205;28;20451;-66
2022/03/05 11:58:04;;;;;;;39.75;10.32;;;;;;;;;;5074687;28;20039;-69
2022/03/05 12:00:35;;;;;;;50.50;10.57;;;;;;;;;;5072592;28;20120;-66
2022/03/05 12:03:03;;;;;;;45.83;12.25;;;;;;;;;;5058398;28;20128;-66
2022/03/05 12:05:42;;;;;;;37.75;11.40;;;;;;;;;;5076884;28;20111;-69
2022/03/05 12:08:34;;;;;;;45.67;14.52;;;;;;;;;;5060131;28;20499;-69
2022/03/05 12:11:16;;;;;;;43.38;14.52;;;;;;;;;;5016774;28;20037;-68
2022/03/05 12:13:59;;;;;;;35.53;13.20;;;;;;;;;;5017082;28;20376;-67
2022/03/05 12:16:28;;;;;;;39.08;13.63;;;;;;;;;;5017049;28;20049;-66
2022/03/05 12:18:59;;;;;;;30.33;11.25;;;;;;;;;;5016919;28;20046;-67
2022/03/05 12:21:35;;;;;;;24.52;9.30;;;;;;;;;;5017037;28;20042;-66
2022/03/05 12:24:08;;;;;;;26.42;10.57;;;;;;;;;;5016898;28;20038;-67
2022/03/05 12:26:43;;;;;;;27.58;10.80;;;;;;;;;;5016926;28;20076;-67
2022/03/05 12:29:11;;;;;;;31.00;9.00;;;;;;;;;;5016880;28;20038;-66
2022/03/05 12:31:42;;;;;;;24.90;10.50;;;;;;;;;;5016843;28;20046;-67
2022/03/05 12:34:10;;;;;;;36.35;13.30;;;;;;;;;;5016772;28;20046;-67
2022/03/05 12:36:44;;;;;;;48.03;20.77;;;;;;;;;;5018937;28;20077;-67
2022/03/05 12:39:14;;;;;;;46.05;18.95;;;;;;;;;;5036155;28;20032;-68
2022/03/05 12:41:42;;;;;;;45.65;15.63;;;;;;;;;;5036246;28;20030;-68
2022/03/05 12:44:14;;;;;;;34.95;13.00;;;;;;;;;;5036416;28;20052;-68
2022/03/05 12:46:42;;;;;;;27.70;12.48;;;;;;;;;;5038489;28;20017;-66
2022/03/05 12:49:09;;;;;;;30.40;13.32;;;;;;;;;;5077106;28;20033;-67
2022/03/05 12:51:37;;;;;;;38.08;14.05;;;;;;;;;;5078142;28;20051;-67
2022/03/05 12:54:05;;;;;;;35.72;14.00;;;;;;;;;;5077116;28;20345;-67
2022/03/05 12:56:34;;;;;;;40.00;16.23;;;;;;;;;;5078105;28;20032;-67
2022/03/05 12:59:01;;;;;;;40.15;18.10;;;;;;;;;;5077648;28;20070;-67
2022/03/05 13:01:28;;;;;;;45.55;18.88;;;;;;;;;;5076833;28;20090;-67
2022/03/05 13:03:57;;;;;;;43.38;19.42;;;;;;;;;;5077946;28;20465;-67
2022/03/05 13:06:25;;;;;;;41.10;18.67;;;;;;;;;;5077796;28;20024;-68
2022/03/05 13:08:53;;;;;;;33.15;16.10;;;;;;;;;;5077709;28;20019;-66
2022/03/05 13:11:22;;;;;;;41.00;15.35;;;;;;;;;;5077432;28;20021;-66
2022/03/05 13:13:56;;;;;;;38.95;15.90;;;;;;;;;;5077498;28;20024;-69
2022/03/05 13:16:29;;;;;;;42.05;16.67;;;;;;;;;;5077630;28;20031;-67
2022/03/05 13:19:05;;;;;;;51.67;18.77;;;;;;;;;;5077389;28;20099;-67
2022/03/05 13:21:43;;;;;;;51.67;20.58;;;;;;;;;;5077335;28;20027;-67
2022/03/05 13:24:12;;;;;;;42.83;20.63;;;;;;;;;;5077408;28;20031;-66
2022/03/05 13:26:41;;;;;;;52.47;21.08;;;;;;;;;;5077340;28;20025;-66
2022/03/05 13:29:09;;;;;;;50.95;20.70;;;;;;;;;;5077254;28;20020;-67
2022/03/05 13:31:37;;;;;;;51.75;22.45;;;;;;;;;;5077214;28;20074;-66
2022/03/05 13:34:05;;;;;;;44.45;21.30;;;;;;;;;;5076053;28;20032;-67
2022/03/05 13:36:41;;;;;;;42.05;19.10;;;;;;;;;;5077021;28;20048;-68
2022/03/05 13:39:18;;;;;;;44.72;19.33;;;;;;;;;;5075944;28;20036;-67
2022/03/05 13:41:52;;;;;;;42.70;19.95;;;;;;;;;;5076092;28;20021;-66
2022/03/05 13:44:26;;;;;;;48.97;18.70;;;;;;;;;;5077040;28;20122;-66
2022/03/05 13:46:55;;;;;;;40.00;17.50;;;;;;;;;;5076936;28;20027;-68
2022/03/05 13:49:24;;;;;;;37.35;15.07;;;;;;;;;;5076897;28;20025;-68
2022/03/05 13:51:53;;;;;;;39.33;15.43;;;;;;;;;;5076810;28;20025;-66
2022/03/05 13:54:38;;;;;;;45.50;17.05;;;;;;;;;;5076767;28;20020;-67
2022/03/05 13:57:06;;;;;;;40.03;17.90;;;;;;;;;;5075511;28;20111;-67
2022/03/05 13:59:37;;;;;;;44.50;19.48;;;;;;;;;;5075321;28;20078;-67
2022/03/05 14:02:04;;;;;;;52.97;26.70;;;;;;;;;;5076756;28;20059;-67
2022/03/05 14:04:34;;;;;;;39.15;16.13;;;;;;;;;;5076620;28;20017;-69
2022/03/05 14:07:04;;;;;;;44.33;18.67;;;;;;;;;;5075320;28;20020;-67
2022/03/05 14:09:39;;;;;;;39.72;17.85;;;;;;;;;;5076287;28;20028;-66
2022/03/05 14:12:10;;;;;;;32.42;15.25;;;;;;;;;;5075463;28;20024;-67
2022/03/05 14:14:49;;;;;;;33.22;12.95;;;;;;;;;;5076355;28;20032;-68
2022/03/05 14:17:35;;;;;;;29.58;11.52;;;;;;;;;;5075014;28;20421;-67
2022/03/05 14:20:07;;;;;;;45.97;16.38;;;;;;;;;;5076215;28;20079;-67
2022/03/05 14:23:04;;;;;;;34.42;14.82;;;;;;;;;;5076104;28;20421;-68
2022/03/05 14:25:50;;;;;;;33.60;13.52;;;;;;;;;;5073672;28;20033;-67
2022/03/05 14:28:24;;;;;;;37.42;17.23;;;;;;;;;;5074429;28;20382;-67
2022/03/05 14:30:52;;;;;;;55.05;21.63;;;;;;;;;;5074284;28;20040;-66
2022/03/05 14:33:19;;;;;;;40.13;20.35;;;;;;;;;;5074308;28;20130;-66
2022/03/05 14:35:47;;;;;;;33.75;16.90;;;;;;;;;;5074208;28;20040;-67
2022/03/05 14:38:15;;;;;;;34.97;15.68;;;;;;;;;;5074296;28;20468;-66
2022/03/05 14:40:43;;;;;;;54.55;22.00;;;;;;;;;;5074083;28;20032;-67